sensor_id;sensor_type;location;lat;lon;timestamp;temperature;humidity
37412;DHT22;23278;52.110;6.050;2023-12-22T00:00:04;5.90;99.90
37412;DHT22;23278;52.110;6.050;2023-12-22T00:02:31;5.80;99.90
37412;DHT22;23278;52.110;6.050;2023-12-22T00:04:56;5.90;99.90
37412;DHT22;23278;52.110;6.050;2023-12-22T00:07:22;5.90;99.90
37412;DHT22;23278;52.110;6.050;2023-12-22T00:09:48;5.90;99.90
37412;DHT22;23278;52.110;6.050;2023-12-22T00:12:14;5.90;99.90
37412;DHT22;23278;52.110;6.050;2023-12-22T00:14:40;5.90;99.90
37412;DHT22;23278;52.110;6.050;2023-12-22T00:17:06;5.90;99.90
37412;DHT22;23278;52.110;6.050;2023-12-22T00:19:32;5.90;99.90
37412;DHT22;23278;52.110;6.050;2023-12-22T00:21:58;6.00;99.90
37412;DHT22;23278;52.110;6.050;2023-12-22T00:24:24;6.10;99.90
37412;DHT22;23278;52.110;6.050;2023-12-22T00:26:50;6.20;99.90
37412;DHT22;23278;52.110;6.050;2023-12-22T00:29:16;6.30;99.90
37412;DHT22;23278;52.110;6.050;2023-12-22T00:31:42;6.40;99.90
37412;DHT22;23278;52.110;6.050;2023-12-22T00:34:08;6.50;99.90
37412;DHT22;23278;52.110;6.050;2023-12-22T00:36:34;6.50;99.90
37412;DHT22;23278;52.110;6.050;2023-12-22T00:39:00;6.60;99.90
37412;DHT22;23278;52.110;6.050;2023-12-22T00:41:26;6.60;99.90
37412;DHT22;23278;52.110;6.050;2023-12-22T00:43:52;6.70;99.90
37412;DHT22;23278;52.110;6.050;2023-12-22T00:46:18;6.70;99.90
37412;DHT22;23278;52.110;6.050;2023-12-22T00:48:45;6.70;99.90
37412;DHT22;23278;52.110;6.050;2023-12-22T00:51:11;6.80;99.90
37412;DHT22;23278;52.110;6.050;2023-12-22T00:53:37;6.90;99.90
37412;DHT22;23278;52.110;6.050;2023-12-22T00:56:03;6.90;99.90
37412;DHT22;23278;52.110;6.050;2023-12-22T00:58:30;6.90;99.90
37412;DHT22;23278;52.110;6.050;2023-12-22T01:00:56;7.00;99.90
37412;DHT22;23278;52.110;6.050;2023-12-22T01:03:22;7.00;99.90
37412;DHT22;23278;52.110;6.050;2023-12-22T01:05:48;7.00;99.90
37412;DHT22;23278;52.110;6.050;2023-12-22T01:08:14;6.90;99.90
37412;DHT22;23278;52.110;6.050;2023-12-22T01:10:40;6.90;99.90
37412;DHT22;23278;52.110;6.050;2023-12-22T01:13:05;6.90;99.90
37412;DHT22;23278;52.110;6.050;2023-12-22T01:15:31;6.80;99.90
37412;DHT22;23278;52.110;6.050;2023-12-22T01:17:57;6.80;99.90
37412;DHT22;23278;52.110;6.050;2023-12-22T01:20:23;6.80;99.90
37412;DHT22;23278;52.110;6.050;2023-12-22T01:22:49;6.80;99.90
37412;DHT22;23278;52.110;6.050;2023-12-22T01:25:15;6.80;99.90
37412;DHT22;23278;52.110;6.050;2023-12-22T01:27:41;6.70;99.90
37412;DHT22;23278;52.110;6.050;2023-12-22T01:30:07;6.60;99.90
37412;DHT22;23278;52.110;6.050;2023-12-22T01:32:33;6.60;99.90
37412;DHT22;23278;52.110;6.050;2023-12-22T01:35:02;6.70;99.90
37412;DHT22;23278;52.110;6.050;2023-12-22T01:37:35;6.60;99.90
37412;DHT22;23278;52.110;6.050;2023-12-22T01:40:02;6.60;99.90
37412;DHT22;23278;52.110;6.050;2023-12-22T01:42:29;6.60;99.90
37412;DHT22;23278;52.110;6.050;2023-12-22T01:44:55;6.70;99.90
37412;DHT22;23278;52.110;6.050;2023-12-22T01:47:21;6.70;99.90
37412;DHT22;23278;52.110;6.050;2023-12-22T01:49:47;6.70;99.90
37412;DHT22;23278;52.110;6.050;2023-12-22T01:52:15;6.70;99.90
37412;DHT22;23278;52.110;6.050;2023-12-22T01:54:41;6.70;99.90
37412;DHT22;23278;52.110;6.050;2023-12-22T01:57:08;6.70;99.90
37412;DHT22;23278;52.110;6.050;2023-12-22T01:59:35;6.70;99.90
37412;DHT22;23278;52.110;6.050;2023-12-22T02:02:04;6.60;99.90
37412;DHT22;23278;52.110;6.050;2023-12-22T02:04:31;6.50;99.90
37412;DHT22;23278;52.110;6.050;2023-12-22T02:06:58;6.40;99.90
37412;DHT22;23278;52.110;6.050;2023-12-22T02:09:26;6.40;99.90
37412;DHT22;23278;52.110;6.050;2023-12-22T02:11:52;6.50;99.90
37412;DHT22;23278;52.110;6.050;2023-12-22T02:14:18;6.50;99.90
37412;DHT22;23278;52.110;6.050;2023-12-22T02:17:25;6.60;99.90
37412;DHT22;23278;52.110;6.050;2023-12-22T02:19:48;6.60;99.90
37412;DHT22;23278;52.110;6.050;2023-12-22T02:22:14;6.60;99.90
37412;DHT22;23278;52.110;6.050;2023-12-22T02:24:40;6.60;99.90
37412;DHT22;23278;52.110;6.050;2023-12-22T02:30:08;6.70;99.90
37412;DHT22;23278;52.110;6.050;2023-12-22T02:32:44;6.70;99.90
37412;DHT22;23278;52.110;6.050;2023-12-22T02:35:16;6.70;99.90
37412;DHT22;23278;52.110;6.050;2023-12-22T02:37:46;6.70;99.90
37412;DHT22;23278;52.110;6.050;2023-12-22T02:40:12;6.70;99.90
37412;DHT22;23278;52.110;6.050;2023-12-22T02:42:39;6.70;99.90
37412;DHT22;23278;52.110;6.050;2023-12-22T02:45:06;6.70;99.90
37412;DHT22;23278;52.110;6.050;2023-12-22T02:47:32;6.60;99.90
37412;DHT22;23278;52.110;6.050;2023-12-22T02:49:59;6.60;99.90
37412;DHT22;23278;52.110;6.050;2023-12-22T02:52:25;6.70;99.90
37412;DHT22;23278;52.110;6.050;2023-12-22T02:54:51;6.70;99.90
37412;DHT22;23278;52.110;6.050;2023-12-22T02:57:17;6.70;99.90
37412;DHT22;23278;52.110;6.050;2023-12-22T02:59:43;6.70;99.90
37412;DHT22;23278;52.110;6.050;2023-12-22T03:02:09;6.70;99.90
37412;DHT22;23278;52.110;6.050;2023-12-22T03:04:35;6.70;99.90
37412;DHT22;23278;52.110;6.050;2023-12-22T03:07:00;6.50;99.90
37412;DHT22;23278;52.110;6.050;2023-12-22T03:09:26;6.30;99.90
37412;DHT22;23278;52.110;6.050;2023-12-22T03:11:52;6.00;99.90
37412;DHT22;23278;52.110;6.050;2023-12-22T03:14:20;5.90;99.90
37412;DHT22;23278;52.110;6.050;2023-12-22T03:16:46;5.70;99.90
37412;DHT22;23278;52.110;6.050;2023-12-22T03:19:12;5.60;99.90
37412;DHT22;23278;52.110;6.050;2023-12-22T03:21:38;5.60;99.90
37412;DHT22;23278;52.110;6.050;2023-12-22T03:24:04;5.50;99.90
37412;DHT22;23278;52.110;6.050;2023-12-22T03:26:30;5.50;99.90
37412;DHT22;23278;52.110;6.050;2023-12-22T03:28:56;5.50;99.90
37412;DHT22;23278;52.110;6.050;2023-12-22T03:31:21;5.40;99.90
37412;DHT22;23278;52.110;6.050;2023-12-22T03:33:47;5.40;99.90
37412;DHT22;23278;52.110;6.050;2023-12-22T03:36:13;5.40;99.90
37412;DHT22;23278;52.110;6.050;2023-12-22T03:38:39;5.30;99.90
37412;DHT22;23278;52.110;6.050;2023-12-22T03:41:05;5.40;99.90
37412;DHT22;23278;52.110;6.050;2023-12-22T03:43:31;5.40;99.90
37412;DHT22;23278;52.110;6.050;2023-12-22T03:45:57;5.40;99.90
37412;DHT22;23278;52.110;6.050;2023-12-22T03:48:23;5.40;99.90
37412;DHT22;23278;52.110;6.050;2023-12-22T03:50:49;5.40;99.90
37412;DHT22;23278;52.110;6.050;2023-12-22T03:53:15;5.40;99.90
37412;DHT22;23278;52.110;6.050;2023-12-22T03:55:41;5.40;99.90
37412;DHT22;23278;52.110;6.050;2023-12-22T03:58:07;5.30;99.90
37412;DHT22;23278;52.110;6.050;2023-12-22T04:00:33;5.30;99.90
37412;DHT22;23278;52.110;6.050;2023-12-22T04:03:00;5.30;99.90
37412;DHT22;23278;52.110;6.050;2023-12-22T04:05:26;5.20;99.90
37412;DHT22;23278;52.110;6.050;2023-12-22T04:07:52;5.10;99.90
37412;DHT22;23278;52.110;6.050;2023-12-22T04:10:18;5.10;99.90
37412;DHT22;23278;52.110;6.050;2023-12-22T04:12:44;5.00;99.90
37412;DHT22;23278;52.110;6.050;2023-12-22T04:15:10;5.00;99.90
37412;DHT22;23278;52.110;6.050;2023-12-22T04:17:36;5.00;99.90
37412;DHT22;23278;52.110;6.050;2023-12-22T04:20:02;5.00;99.90
37412;DHT22;23278;52.110;6.050;2023-12-22T04:22:28;4.90;99.90
37412;DHT22;23278;52.110;6.050;2023-12-22T04:24:54;4.90;99.90
37412;DHT22;23278;52.110;6.050;2023-12-22T04:27:20;4.90;99.90
37412;DHT22;23278;52.110;6.050;2023-12-22T04:29:46;4.90;99.90
37412;DHT22;23278;52.110;6.050;2023-12-22T04:32:12;4.90;99.90
37412;DHT22;23278;52.110;6.050;2023-12-22T04:34:37;4.90;99.90
37412;DHT22;23278;52.110;6.050;2023-12-22T04:37:03;4.90;99.90
37412;DHT22;23278;52.110;6.050;2023-12-22T04:39:29;4.90;99.90
37412;DHT22;23278;52.110;6.050;2023-12-22T04:41:55;4.90;99.90
37412;DHT22;23278;52.110;6.050;2023-12-22T04:44:21;4.90;99.90
37412;DHT22;23278;52.110;6.050;2023-12-22T04:46:47;5.00;99.90
37412;DHT22;23278;52.110;6.050;2023-12-22T04:49:13;5.00;99.90
37412;DHT22;23278;52.110;6.050;2023-12-22T04:51:39;5.10;99.90
37412;DHT22;23278;52.110;6.050;2023-12-22T04:54:05;5.20;99.90
37412;DHT22;23278;52.110;6.050;2023-12-22T04:56:31;5.30;99.90
37412;DHT22;23278;52.110;6.050;2023-12-22T04:58:56;5.40;99.90
37412;DHT22;23278;52.110;6.050;2023-12-22T05:01:22;5.50;99.90
37412;DHT22;23278;52.110;6.050;2023-12-22T05:03:48;5.60;99.90
37412;DHT22;23278;52.110;6.050;2023-12-22T05:06:14;5.70;99.90
37412;DHT22;23278;52.110;6.050;2023-12-22T05:08:40;5.70;99.90
37412;DHT22;23278;52.110;6.050;2023-12-22T05:11:06;5.80;99.90
37412;DHT22;23278;52.110;6.050;2023-12-22T05:13:32;5.90;99.90
37412;DHT22;23278;52.110;6.050;2023-12-22T05:15:58;5.90;99.90
37412;DHT22;23278;52.110;6.050;2023-12-22T05:18:25;6.00;99.90
37412;DHT22;23278;52.110;6.050;2023-12-22T05:20:51;6.00;99.90
37412;DHT22;23278;52.110;6.050;2023-12-22T05:23:19;6.10;99.90
37412;DHT22;23278;52.110;6.050;2023-12-22T05:25:45;6.10;99.90
37412;DHT22;23278;52.110;6.050;2023-12-22T05:28:11;6.10;99.90
37412;DHT22;23278;52.110;6.050;2023-12-22T05:30:37;6.10;99.90
37412;DHT22;23278;52.110;6.050;2023-12-22T05:33:03;6.00;99.90
37412;DHT22;23278;52.110;6.050;2023-12-22T05:35:29;6.00;99.90
37412;DHT22;23278;52.110;6.050;2023-12-22T05:37:55;6.00;99.90
37412;DHT22;23278;52.110;6.050;2023-12-22T05:40:21;6.00;99.90
37412;DHT22;23278;52.110;6.050;2023-12-22T05:42:47;6.10;99.90
37412;DHT22;23278;52.110;6.050;2023-12-22T05:45:14;6.10;99.90
37412;DHT22;23278;52.110;6.050;2023-12-22T05:47:40;6.10;99.90
37412;DHT22;23278;52.110;6.050;2023-12-22T05:50:07;6.10;99.90
37412;DHT22;23278;52.110;6.050;2023-12-22T05:52:33;6.10;99.90
37412;DHT22;23278;52.110;6.050;2023-12-22T05:54:59;6.20;99.90
37412;DHT22;23278;52.110;6.050;2023-12-22T05:57:26;6.20;99.90
37412;DHT22;23278;52.110;6.050;2023-12-22T05:59:51;6.20;99.90
37412;DHT22;23278;52.110;6.050;2023-12-22T06:02:18;6.20;99.90
37412;DHT22;23278;52.110;6.050;2023-12-22T06:04:44;6.20;99.90
37412;DHT22;23278;52.110;6.050;2023-12-22T06:07:10;6.10;99.90
37412;DHT22;23278;52.110;6.050;2023-12-22T06:09:36;6.10;99.90
37412;DHT22;23278;52.110;6.050;2023-12-22T06:12:03;6.10;99.90
37412;DHT22;23278;52.110;6.050;2023-12-22T06:14:29;6.10;99.90
37412;DHT22;23278;52.110;6.050;2023-12-22T06:16:54;6.10;99.90
37412;DHT22;23278;52.110;6.050;2023-12-22T06:19:23;6.20;99.90
37412;DHT22;23278;52.110;6.050;2023-12-22T06:21:50;6.20;99.90
37412;DHT22;23278;52.110;6.050;2023-12-22T06:24:16;6.10;99.90
37412;DHT22;23278;52.110;6.050;2023-12-22T06:26:42;6.10;99.90
37412;DHT22;23278;52.110;6.050;2023-12-22T06:29:08;6.10;99.90
37412;DHT22;23278;52.110;6.050;2023-12-22T06:31:35;6.10;99.90
37412;DHT22;23278;52.110;6.050;2023-12-22T06:34:01;6.10;99.90
37412;DHT22;23278;52.110;6.050;2023-12-22T06:36:28;6.10;99.90
37412;DHT22;23278;52.110;6.050;2023-12-22T06:38:54;6.10;99.90
37412;DHT22;23278;52.110;6.050;2023-12-22T06:41:29;6.20;99.90
37412;DHT22;23278;52.110;6.050;2023-12-22T06:43:57;6.20;99.90
37412;DHT22;23278;52.110;6.050;2023-12-22T06:46:25;6.20;99.90
37412;DHT22;23278;52.110;6.050;2023-12-22T06:48:52;6.30;99.90
37412;DHT22;23278;52.110;6.050;2023-12-22T06:51:20;6.30;99.90
37412;DHT22;23278;52.110;6.050;2023-12-22T06:53:49;6.30;99.90
37412;DHT22;23278;52.110;6.050;2023-12-22T06:56:20;6.30;99.90
37412;DHT22;23278;52.110;6.050;2023-12-22T06:58:50;6.30;99.90
37412;DHT22;23278;52.110;6.050;2023-12-22T07:01:21;6.20;99.90
37412;DHT22;23278;52.110;6.050;2023-12-22T07:03:48;6.20;99.90
37412;DHT22;23278;52.110;6.050;2023-12-22T07:06:15;6.20;99.90
37412;DHT22;23278;52.110;6.050;2023-12-22T07:08:41;6.10;99.90
37412;DHT22;23278;52.110;6.050;2023-12-22T07:11:09;6.00;99.90
37412;DHT22;23278;52.110;6.050;2023-12-22T07:13:35;6.00;99.90
37412;DHT22;23278;52.110;6.050;2023-12-22T07:16:01;6.00;99.90
37412;DHT22;23278;52.110;6.050;2023-12-22T07:18:30;6.00;99.90
37412;DHT22;23278;52.110;6.050;2023-12-22T07:21:00;6.10;99.90
37412;DHT22;23278;52.110;6.050;2023-12-22T07:23:26;6.20;99.90
37412;DHT22;23278;52.110;6.050;2023-12-22T07:25:52;6.20;99.90
37412;DHT22;23278;52.110;6.050;2023-12-22T07:28:17;6.20;99.90
37412;DHT22;23278;52.110;6.050;2023-12-22T07:30:43;6.30;99.90
37412;DHT22;23278;52.110;6.050;2023-12-22T07:33:09;6.30;99.90
37412;DHT22;23278;52.110;6.050;2023-12-22T07:35:35;6.40;99.90
37412;DHT22;23278;52.110;6.050;2023-12-22T07:38:01;6.50;99.90
37412;DHT22;23278;52.110;6.050;2023-12-22T07:40:30;6.50;99.90
37412;DHT22;23278;52.110;6.050;2023-12-22T07:42:56;6.60;99.90
37412;DHT22;23278;52.110;6.050;2023-12-22T07:45:22;6.70;99.90
37412;DHT22;23278;52.110;6.050;2023-12-22T07:47:48;6.80;99.90
37412;DHT22;23278;52.110;6.050;2023-12-22T07:50:15;6.90;99.90
37412;DHT22;23278;52.110;6.050;2023-12-22T07:52:41;6.90;99.90
37412;DHT22;23278;52.110;6.050;2023-12-22T07:55:08;7.00;99.90
37412;DHT22;23278;52.110;6.050;2023-12-22T07:57:38;7.10;99.90
37412;DHT22;23278;52.110;6.050;2023-12-22T08:00:07;7.10;99.90
37412;DHT22;23278;52.110;6.050;2023-12-22T08:02:38;7.20;99.90
37412;DHT22;23278;52.110;6.050;2023-12-22T08:05:04;7.20;99.90
37412;DHT22;23278;52.110;6.050;2023-12-22T08:07:30;7.20;99.90
37412;DHT22;23278;52.110;6.050;2023-12-22T08:09:56;7.30;99.90
37412;DHT22;23278;52.110;6.050;2023-12-22T08:12:23;7.40;99.90
37412;DHT22;23278;52.110;6.050;2023-12-22T08:14:48;7.40;99.90
37412;DHT22;23278;52.110;6.050;2023-12-22T08:17:14;7.40;99.90
37412;DHT22;23278;52.110;6.050;2023-12-22T08:19:41;7.50;99.90
37412;DHT22;23278;52.110;6.050;2023-12-22T08:22:10;7.60;99.90
37412;DHT22;23278;52.110;6.050;2023-12-22T08:24:36;7.60;99.90
37412;DHT22;23278;52.110;6.050;2023-12-22T08:27:02;7.60;99.90
37412;DHT22;23278;52.110;6.050;2023-12-22T08:29:28;7.70;99.90
37412;DHT22;23278;52.110;6.050;2023-12-22T08:31:54;7.60;99.90
37412;DHT22;23278;52.110;6.050;2023-12-22T08:34:20;7.60;99.90
37412;DHT22;23278;52.110;6.050;2023-12-22T08:36:46;7.60;99.90
37412;DHT22;23278;52.110;6.050;2023-12-22T08:39:12;7.60;99.90
37412;DHT22;23278;52.110;6.050;2023-12-22T08:41:38;7.60;99.90
37412;DHT22;23278;52.110;6.050;2023-12-22T08:44:05;7.60;99.90
37412;DHT22;23278;52.110;6.050;2023-12-22T08:46:31;7.60;99.90
37412;DHT22;23278;52.110;6.050;2023-12-22T08:48:57;7.60;99.90
37412;DHT22;23278;52.110;6.050;2023-12-22T08:51:25;7.60;99.90
37412;DHT22;23278;52.110;6.050;2023-12-22T08:53:53;7.60;99.90
37412;DHT22;23278;52.110;6.050;2023-12-22T08:56:24;7.50;99.90
37412;DHT22;23278;52.110;6.050;2023-12-22T08:58:51;7.50;99.90
37412;DHT22;23278;52.110;6.050;2023-12-22T09:01:18;7.50;99.90
37412;DHT22;23278;52.110;6.050;2023-12-22T09:03:45;7.50;99.90
37412;DHT22;23278;52.110;6.050;2023-12-22T09:06:22;7.50;99.90
37412;DHT22;23278;52.110;6.050;2023-12-22T09:08:48;7.50;99.90
37412;DHT22;23278;52.110;6.050;2023-12-22T09:11:19;7.50;99.90
37412;DHT22;23278;52.110;6.050;2023-12-22T09:13:45;7.50;99.90
37412;DHT22;23278;52.110;6.050;2023-12-22T09:16:11;7.60;99.90
37412;DHT22;23278;52.110;6.050;2023-12-22T09:18:40;7.60;99.90
37412;DHT22;23278;52.110;6.050;2023-12-22T09:21:07;7.50;99.90
37412;DHT22;23278;52.110;6.050;2023-12-22T09:23:33;7.50;99.90
37412;DHT22;23278;52.110;6.050;2023-12-22T09:25:59;7.60;99.90
37412;DHT22;23278;52.110;6.050;2023-12-22T09:28:25;7.70;99.90
37412;DHT22;23278;52.110;6.050;2023-12-22T09:30:51;7.70;99.90
37412;DHT22;23278;52.110;6.050;2023-12-22T09:33:17;7.80;99.90
37412;DHT22;23278;52.110;6.050;2023-12-22T09:35:43;8.00;99.90
37412;DHT22;23278;52.110;6.050;2023-12-22T09:38:10;8.20;99.90
37412;DHT22;23278;52.110;6.050;2023-12-22T09:40:38;8.30;99.90
37412;DHT22;23278;52.110;6.050;2023-12-22T09:43:06;8.40;99.90
37412;DHT22;23278;52.110;6.050;2023-12-22T09:45:33;8.50;99.90
37412;DHT22;23278;52.110;6.050;2023-12-22T09:48:00;8.60;99.90
37412;DHT22;23278;52.110;6.050;2023-12-22T09:50:27;8.70;99.90
37412;DHT22;23278;52.110;6.050;2023-12-22T09:52:53;8.80;99.90
37412;DHT22;23278;52.110;6.050;2023-12-22T09:55:21;8.80;99.90
37412;DHT22;23278;52.110;6.050;2023-12-22T09:57:51;8.90;99.90
37412;DHT22;23278;52.110;6.050;2023-12-22T10:00:18;8.90;99.90
37412;DHT22;23278;52.110;6.050;2023-12-22T10:02:44;9.00;99.90
37412;DHT22;23278;52.110;6.050;2023-12-22T10:05:13;9.00;99.90
37412;DHT22;23278;52.110;6.050;2023-12-22T10:07:41;9.00;99.90
37412;DHT22;23278;52.110;6.050;2023-12-22T10:10:09;9.00;99.90
37412;DHT22;23278;52.110;6.050;2023-12-22T10:12:36;9.00;99.90
37412;DHT22;23278;52.110;6.050;2023-12-22T10:15:05;8.90;99.90
37412;DHT22;23278;52.110;6.050;2023-12-22T10:17:32;8.90;99.90
37412;DHT22;23278;52.110;6.050;2023-12-22T10:19:58;8.80;99.90
37412;DHT22;23278;52.110;6.050;2023-12-22T10:22:24;8.80;99.90
37412;DHT22;23278;52.110;6.050;2023-12-22T10:24:50;8.80;99.90
37412;DHT22;23278;52.110;6.050;2023-12-22T10:27:17;8.80;99.90
37412;DHT22;23278;52.110;6.050;2023-12-22T10:29:55;8.80;99.90
37412;DHT22;23278;52.110;6.050;2023-12-22T10:32:22;8.80;99.90
37412;DHT22;23278;52.110;6.050;2023-12-22T10:34:52;8.80;99.90
37412;DHT22;23278;52.110;6.050;2023-12-22T10:37:18;8.80;99.90
37412;DHT22;23278;52.110;6.050;2023-12-22T10:39:45;8.90;99.90
37412;DHT22;23278;52.110;6.050;2023-12-22T10:42:14;8.90;99.90
37412;DHT22;23278;52.110;6.050;2023-12-22T10:44:40;8.90;99.90
37412;DHT22;23278;52.110;6.050;2023-12-22T10:47:07;8.90;99.90
37412;DHT22;23278;52.110;6.050;2023-12-22T10:49:33;8.90;99.90
37412;DHT22;23278;52.110;6.050;2023-12-22T10:51:59;8.90;99.90
37412;DHT22;23278;52.110;6.050;2023-12-22T10:54:25;8.90;99.90
37412;DHT22;23278;52.110;6.050;2023-12-22T10:56:57;9.00;99.90
37412;DHT22;23278;52.110;6.050;2023-12-22T10:59:28;9.20;99.90
37412;DHT22;23278;52.110;6.050;2023-12-22T11:01:57;9.30;99.90
37412;DHT22;23278;52.110;6.050;2023-12-22T11:04:28;9.30;99.90
37412;DHT22;23278;52.110;6.050;2023-12-22T11:06:57;9.40;99.90
37412;DHT22;23278;52.110;6.050;2023-12-22T11:09:24;9.50;99.90
37412;DHT22;23278;52.110;6.050;2023-12-22T11:11:52;9.60;99.90
37412;DHT22;23278;52.110;6.050;2023-12-22T11:14:19;9.70;99.90
37412;DHT22;23278;52.110;6.050;2023-12-22T11:16:47;9.70;99.90
37412;DHT22;23278;52.110;6.050;2023-12-22T11:19:14;9.60;99.90
37412;DHT22;23278;52.110;6.050;2023-12-22T11:21:41;9.60;99.90
37412;DHT22;23278;52.110;6.050;2023-12-22T11:24:08;9.50;99.90
37412;DHT22;23278;52.110;6.050;2023-12-22T11:26:35;9.50;99.90
37412;DHT22;23278;52.110;6.050;2023-12-22T11:29:02;9.50;99.90
37412;DHT22;23278;52.110;6.050;2023-12-22T11:31:31;9.60;99.90
37412;DHT22;23278;52.110;6.050;2023-12-22T11:33:58;9.60;99.90
37412;DHT22;23278;52.110;6.050;2023-12-22T11:36:29;9.70;99.90
37412;DHT22;23278;52.110;6.050;2023-12-22T11:38:55;9.80;99.90
37412;DHT22;23278;52.110;6.050;2023-12-22T11:41:25;9.90;99.90
37412;DHT22;23278;52.110;6.050;2023-12-22T11:43:54;9.90;99.90
37412;DHT22;23278;52.110;6.050;2023-12-22T11:46:20;10.00;99.90
37412;DHT22;23278;52.110;6.050;2023-12-22T11:48:51;10.10;99.90
37412;DHT22;23278;52.110;6.050;2023-12-22T11:51:17;10.10;99.90
37412;DHT22;23278;52.110;6.050;2023-12-22T11:53:44;10.20;99.90
37412;DHT22;23278;52.110;6.050;2023-12-22T11:56:11;10.20;99.90
37412;DHT22;23278;52.110;6.050;2023-12-22T11:58:48;10.20;99.90
37412;DHT22;23278;52.110;6.050;2023-12-22T12:01:25;10.20;99.90
37412;DHT22;23278;52.110;6.050;2023-12-22T12:03:56;10.30;99.90
37412;DHT22;23278;52.110;6.050;2023-12-22T12:06:31;10.30;99.90
37412;DHT22;23278;52.110;6.050;2023-12-22T12:09:03;10.30;99.90
37412;DHT22;23278;52.110;6.050;2023-12-22T12:14:22;10.40;99.90
37412;DHT22;23278;52.110;6.050;2023-12-22T12:16:48;10.40;99.90
37412;DHT22;23278;52.110;6.050;2023-12-22T12:19:15;10.40;99.90
37412;DHT22;23278;52.110;6.050;2023-12-22T12:21:40;10.40;99.90
37412;DHT22;23278;52.110;6.050;2023-12-22T12:24:07;10.40;99.90
37412;DHT22;23278;52.110;6.050;2023-12-22T12:26:34;10.50;99.90
37412;DHT22;23278;52.110;6.050;2023-12-22T12:29:01;10.50;99.90
37412;DHT22;23278;52.110;6.050;2023-12-22T12:31:37;10.50;99.90
37412;DHT22;23278;52.110;6.050;2023-12-22T12:34:07;10.50;99.90
37412;DHT22;23278;52.110;6.050;2023-12-22T12:36:34;10.50;99.90
37412;DHT22;23278;52.110;6.050;2023-12-22T12:39:14;10.50;99.90
37412;DHT22;23278;52.110;6.050;2023-12-22T12:41:41;10.40;99.90
37412;DHT22;23278;52.110;6.050;2023-12-22T12:44:09;10.30;99.90
37412;DHT22;23278;52.110;6.050;2023-12-22T12:46:37;10.30;99.90
37412;DHT22;23278;52.110;6.050;2023-12-22T12:49:07;10.30;99.90
37412;DHT22;23278;52.110;6.050;2023-12-22T12:51:41;10.20;99.90
37412;DHT22;23278;52.110;6.050;2023-12-22T12:54:08;10.20;99.90
37412;DHT22;23278;52.110;6.050;2023-12-22T12:56:44;10.10;99.90
37412;DHT22;23278;52.110;6.050;2023-12-22T12:59:15;10.00;99.90
37412;DHT22;23278;52.110;6.050;2023-12-22T13:01:43;10.00;99.90
37412;DHT22;23278;52.110;6.050;2023-12-22T13:04:09;9.90;99.90
37412;DHT22;23278;52.110;6.050;2023-12-22T13:06:46;9.90;99.90
37412;DHT22;23278;52.110;6.050;2023-12-22T13:09:12;9.80;99.90
37412;DHT22;23278;52.110;6.050;2023-12-22T13:11:41;9.80;99.90
37412;DHT22;23278;52.110;6.050;2023-12-22T13:14:21;9.70;99.90
37412;DHT22;23278;52.110;6.050;2023-12-22T13:16:47;9.60;99.90
37412;DHT22;23278;52.110;6.050;2023-12-22T13:19:13;9.60;99.90
37412;DHT22;23278;52.110;6.050;2023-12-22T13:21:39;9.70;99.90
37412;DHT22;23278;52.110;6.050;2023-12-22T13:24:12;9.70;99.90
37412;DHT22;23278;52.110;6.050;2023-12-22T13:26:39;9.80;99.90
37412;DHT22;23278;52.110;6.050;2023-12-22T13:29:06;9.80;99.90
37412;DHT22;23278;52.110;6.050;2023-12-22T13:31:32;9.90;99.90
37412;DHT22;23278;52.110;6.050;2023-12-22T13:34:02;9.90;99.90
37412;DHT22;23278;52.110;6.050;2023-12-22T13:36:33;9.90;99.90
37412;DHT22;23278;52.110;6.050;2023-12-22T13:38:59;9.90;99.90
37412;DHT22;23278;52.110;6.050;2023-12-22T13:41:25;10.00;99.90
37412;DHT22;23278;52.110;6.050;2023-12-22T13:43:51;10.00;99.90
37412;DHT22;23278;52.110;6.050;2023-12-22T13:46:17;10.10;99.90
37412;DHT22;23278;52.110;6.050;2023-12-22T13:48:44;10.10;99.90
37412;DHT22;23278;52.110;6.050;2023-12-22T13:51:10;10.10;99.90
37412;DHT22;23278;52.110;6.050;2023-12-22T13:53:54;10.10;99.90
37412;DHT22;23278;52.110;6.050;2023-12-22T13:56:21;10.10;99.90
37412;DHT22;23278;52.110;6.050;2023-12-22T13:58:47;10.20;99.90
37412;DHT22;23278;52.110;6.050;2023-12-22T14:01:14;10.20;99.90
37412;DHT22;23278;52.110;6.050;2023-12-22T14:03:43;10.20;99.90
37412;DHT22;23278;52.110;6.050;2023-12-22T14:06:12;10.30;99.90
37412;DHT22;23278;52.110;6.050;2023-12-22T14:08:41;10.30;99.90
37412;DHT22;23278;52.110;6.050;2023-12-22T14:11:08;10.30;99.90
37412;DHT22;23278;52.110;6.050;2023-12-22T14:13:34;10.40;99.90
37412;DHT22;23278;52.110;6.050;2023-12-22T14:16:06;10.30;99.90
37412;DHT22;23278;52.110;6.050;2023-12-22T14:18:32;10.30;99.90
37412;DHT22;23278;52.110;6.050;2023-12-22T14:20:58;10.40;99.90
37412;DHT22;23278;52.110;6.050;2023-12-22T14:23:27;10.40;99.90
37412;DHT22;23278;52.110;6.050;2023-12-22T14:25:53;10.40;99.90
37412;DHT22;23278;52.110;6.050;2023-12-22T14:28:19;10.40;99.90
37412;DHT22;23278;52.110;6.050;2023-12-22T14:30:45;10.40;99.90
37412;DHT22;23278;52.110;6.050;2023-12-22T14:33:11;10.50;99.90
37412;DHT22;23278;52.110;6.050;2023-12-22T14:35:37;10.40;99.90
37412;DHT22;23278;52.110;6.050;2023-12-22T14:38:02;10.40;99.90
37412;DHT22;23278;52.110;6.050;2023-12-22T14:40:29;10.40;99.90
37412;DHT22;23278;52.110;6.050;2023-12-22T14:42:55;10.30;99.90
37412;DHT22;23278;52.110;6.050;2023-12-22T14:45:21;10.20;99.90
37412;DHT22;23278;52.110;6.050;2023-12-22T14:47:49;10.10;99.90
37412;DHT22;23278;52.110;6.050;2023-12-22T14:50:14;10.00;99.90
37412;DHT22;23278;52.110;6.050;2023-12-22T14:52:40;10.00;99.90
37412;DHT22;23278;52.110;6.050;2023-12-22T14:55:06;9.90;99.90
37412;DHT22;23278;52.110;6.050;2023-12-22T14:57:32;9.90;99.90
37412;DHT22;23278;52.110;6.050;2023-12-22T14:59:59;9.80;99.90
37412;DHT22;23278;52.110;6.050;2023-12-22T15:02:26;9.80;99.90
37412;DHT22;23278;52.110;6.050;2023-12-22T15:04:53;9.80;99.90
37412;DHT22;23278;52.110;6.050;2023-12-22T15:07:19;9.70;99.90
37412;DHT22;23278;52.110;6.050;2023-12-22T15:09:46;9.70;99.90
37412;DHT22;23278;52.110;6.050;2023-12-22T15:12:14;9.70;99.90
37412;DHT22;23278;52.110;6.050;2023-12-22T15:14:44;9.70;99.90
37412;DHT22;23278;52.110;6.050;2023-12-22T15:17:11;9.70;99.90
37412;DHT22;23278;52.110;6.050;2023-12-22T15:19:40;9.70;99.90
37412;DHT22;23278;52.110;6.050;2023-12-22T15:22:11;9.60;99.90
37412;DHT22;23278;52.110;6.050;2023-12-22T15:24:40;9.60;99.90
37412;DHT22;23278;52.110;6.050;2023-12-22T15:27:09;9.60;99.90
37412;DHT22;23278;52.110;6.050;2023-12-22T15:29:35;9.70;99.90
37412;DHT22;23278;52.110;6.050;2023-12-22T15:32:01;9.70;99.90
37412;DHT22;23278;52.110;6.050;2023-12-22T15:34:27;9.70;99.90
37412;DHT22;23278;52.110;6.050;2023-12-22T15:36:53;9.60;99.90
37412;DHT22;23278;52.110;6.050;2023-12-22T15:39:20;9.70;99.90
37412;DHT22;23278;52.110;6.050;2023-12-22T15:41:49;9.70;99.90
37412;DHT22;23278;52.110;6.050;2023-12-22T15:44:15;9.70;99.90
37412;DHT22;23278;52.110;6.050;2023-12-22T15:46:41;9.70;99.90
37412;DHT22;23278;52.110;6.050;2023-12-22T15:49:07;9.60;99.90